Time;durP1;ratioP1;P1;durP2;ratioP2;P2;SDS_P1;SDS_P2;PMS_P1;PMS_P2;Temp;Humidity;BMP_temperature;BMP_pressure;BME280_temperature;BME280_humidity;BME280_pressure;Samples;Min_cycle;Max_cycle;Signal;HPM_P1;HPM_P2
2022/07/30 00:00:28;;;;;;;11.45;10.25;;;15.00;99.90;;;;;;4983859;28;20129;-54
2022/07/30 00:02:54;;;;;;;12.40;11.20;;;15.00;99.90;;;;;;4985865;28;20042;-55
2022/07/30 00:05:20;;;;;;;10.70;9.63;;;15.00;99.90;;;;;;4968097;28;20109;-52
2022/07/30 00:07:47;;;;;;;18.85;14.68;;;14.90;99.90;;;;;;4984656;28;20050;-50
2022/07/30 00:10:13;;;;;;;20.88;18.88;;;14.90;99.90;;;;;;4980514;28;20058;-50
2022/07/30 00:12:38;;;;;;;17.95;14.35;;;14.80;99.90;;;;;;4989559;28;20485;-53
2022/07/30 00:15:05;;;;;;;16.95;10.85;;;14.70;99.90;;;;;;4989235;28;20046;-55
2022/07/30 00:17:31;;;;;;;17.60;15.77;;;14.70;99.90;;;;;;5077902;23;20591;-46
2022/07/30 00:19:56;;;;;;;17.30;15.63;;;14.70;99.90;;;;;;4966132;28;20143;-45
2022/07/30 00:22:22;;;;;;;16.73;15.23;;;14.60;99.90;;;;;;4966197;28;20560;-44
2022/07/30 00:24:48;;;;;;;15.60;14.13;;;14.50;99.90;;;;;;4962898;28;20057;-46
2022/07/30 00:27:14;;;;;;;12.02;11.02;;;14.50;99.90;;;;;;4965207;28;20071;-46
2022/07/30 00:29:40;;;;;;;12.95;11.82;;;14.50;99.90;;;;;;4965642;28;20409;-44
2022/07/30 00:32:05;;;;;;;13.20;10.93;;;14.50;99.90;;;;;;4965473;28;20456;-45
2022/07/30 00:34:31;;;;;;;14.68;13.15;;;14.40;99.90;;;;;;4965380;28;20046;-46
2022/07/30 00:36:57;;;;;;;17.23;12.02;;;14.50;99.90;;;;;;4965388;28;20412;-42
2022/07/30 00:39:22;;;;;;;12.55;10.20;;;14.40;99.90;;;;;;4964949;28;20509;-45
2022/07/30 00:41:58;;;;;;;14.07;10.00;;;14.40;99.90;;;;;;4963286;28;20058;-46
2022/07/30 00:44:24;;;;;;;15.90;10.05;;;14.30;99.90;;;;;;4963279;28;20062;-46
2022/07/30 00:46:50;;;;;;;12.27;9.80;;;14.30;99.90;;;;;;4963885;28;20548;-45
2022/07/30 00:49:16;;;;;;;14.88;10.05;;;14.30;99.90;;;;;;4964165;28;20506;-44
2022/07/30 00:51:42;;;;;;;9.68;8.68;;;14.30;99.90;;;;;;4964990;28;20090;-44
2022/07/30 00:54:08;;;;;;;12.15;7.65;;;14.20;99.90;;;;;;4965969;28;20053;-44
2022/07/30 00:56:33;;;;;;;12.65;8.43;;;14.20;99.90;;;;;;4966688;28;20058;-46
2022/07/30 00:58:59;;;;;;;13.65;8.45;;;14.20;99.90;;;;;;4965369;28;20050;-45
2022/07/30 01:01:26;;;;;;;11.82;7.78;;;14.20;99.90;;;;;;4964917;28;20071;-47
2022/07/30 01:03:52;;;;;;;10.40;8.27;;;14.10;99.90;;;;;;4969143;28;20053;-47
2022/07/30 01:06:17;;;;;;;10.45;9.27;;;14.10;99.90;;;;;;4966488;28;20046;-49
2022/07/30 01:08:43;;;;;;;15.23;10.48;;;14.10;99.90;;;;;;4966210;28;20738;-46
2022/07/30 01:11:10;;;;;;;12.05;10.52;;;14.10;99.90;;;;;;4964924;28;20754;-45
2022/07/30 01:13:36;;;;;;;13.48;10.77;;;14.10;99.90;;;;;;4964835;28;20584;-44
2022/07/30 01:16:02;;;;;;;11.35;10.18;;;14.10;99.90;;;;;;4964582;28;20134;-44
2022/07/30 01:19:47;;;;;;;10.13;9.07;;;14.00;99.90;;;;;;4973519;28;20050;-44
2022/07/30 01:21:19;;;;;;;7.43;6.22;;;13.90;99.90;;;;;;4983011;28;20127;-44
2022/07/30 01:23:47;;;;;;;7.40;6.70;;;13.90;99.90;;;;;;4964650;28;20065;-45
2022/07/30 01:26:18;;;;;;;9.45;8.00;;;13.90;99.90;;;;;;4967546;28;20109;-44
2022/07/30 01:28:48;;;;;;;25.08;10.45;;;13.90;99.90;;;;;;4967425;28;20086;-46
2022/07/30 01:31:15;;;;;;;105.20;11.05;;;13.80;99.90;;;;;;4963237;28;20511;-44
2022/07/30 01:33:44;;;;;;;94.38;10.25;;;13.80;99.90;;;;;;4966289;28;20220;-43
2022/07/30 01:36:14;;;;;;;22.13;10.50;;;13.70;99.90;;;;;;4953789;28;20097;-43
2022/07/30 01:38:43;;;;;;;13.80;9.80;;;13.60;99.90;;;;;;4966908;28;20516;-44
2022/07/30 01:41:09;;;;;;;9.65;8.57;;;13.60;99.90;;;;;;4983573;28;20058;-44
2022/07/30 01:43:36;;;;;;;9.38;8.13;;;13.60;99.90;;;;;;4976323;28;20055;-45
2022/07/30 01:46:04;;;;;;;8.65;7.75;;;13.50;99.90;;;;;;4974904;28;20082;-44
2022/07/30 01:48:32;;;;;;;9.02;8.05;;;13.50;99.90;;;;;;4983343;28;20054;-44
2022/07/30 01:51:03;;;;;;;10.32;9.05;;;13.60;99.90;;;;;;4965349;28;20513;-46
2022/07/30 01:53:31;;;;;;;11.23;10.07;;;13.60;99.90;;;;;;4964863;28;20193;-44
2022/07/30 01:55:58;;;;;;;14.35;12.57;;;13.70;99.90;;;;;;4981620;28;20050;-44
2022/07/30 01:58:28;;;;;;;13.95;12.55;;;13.80;99.90;;;;;;4972323;28;20473;-46
2022/07/30 02:00:56;;;;;;;16.88;14.10;;;13.80;99.90;;;;;;4967247;28;20058;-47
2022/07/30 02:03:23;;;;;;;20.35;15.88;;;13.90;99.90;;;;;;4964064;28;20640;-46
2022/07/30 02:05:54;;;;;;;21.52;15.90;;;13.90;99.90;;;;;;4955622;28;20066;-44
2022/07/30 02:08:39;;;;;;;18.05;16.23;;;14.00;99.90;;;;;;4983522;28;20082;-45
2022/07/30 02:11:11;;;;;;;25.40;17.80;;;14.00;99.90;;;;;;4977956;28;20072;-47
2022/07/30 02:13:56;;;;;;;52.83;19.33;;;14.20;99.90;;;;;;4983733;28;20054;-45
2022/07/30 02:16:36;;;;;;;49.47;19.05;;;14.40;99.90;;;;;;4958562;28;20364;-46
2022/07/30 02:19:08;;;;;;;40.08;18.58;;;14.40;99.90;;;;;;4966110;28;20055;-44
2022/07/30 02:21:40;;;;;;;33.53;18.52;;;14.50;99.90;;;;;;4963822;28;20057;-49
2022/07/30 02:24:11;;;;;;;31.30;17.98;;;14.60;99.90;;;;;;4963766;28;20164;-48
2022/07/30 02:26:39;;;;;;;20.35;17.75;;;14.50;99.90;;;;;;4963814;28;20043;-45
2022/07/30 02:29:07;;;;;;;27.02;17.23;;;14.70;99.90;;;;;;4961029;28;20066;-43
2022/07/30 02:31:35;;;;;;;27.90;16.65;;;14.70;99.90;;;;;;4962567;28;20046;-45
2022/07/30 02:34:04;;;;;;;47.85;17.63;;;14.70;99.90;;;;;;4963324;28;20078;-44
2022/07/30 02:36:32;;;;;;;33.05;17.35;;;14.80;99.90;;;;;;4960934;28;20051;-43
2022/07/30 02:38:59;;;;;;;103.68;17.55;;;14.80;99.90;;;;;;4963269;28;20061;-44
2022/07/30 02:41:28;;;;;;;59.90;16.40;;;14.80;99.90;;;;;;4962573;28;20047;-44
2022/07/30 02:43:55;;;;;;;39.22;16.33;;;14.80;99.90;;;;;;4962363;28;20050;-43
2022/07/30 02:46:23;;;;;;;32.25;15.75;;;14.80;99.90;;;;;;4944581;28;20050;-43
2022/07/30 02:48:52;;;;;;;67.10;14.88;;;14.90;99.90;;;;;;4961451;28;20098;-45
2022/07/30 02:51:19;;;;;;;28.10;15.45;;;14.90;99.90;;;;;;4962435;28;20046;-43
2022/07/30 02:53:47;;;;;;;34.25;14.90;;;14.90;99.90;;;;;;4961017;28;20405;-43
2022/07/30 02:56:14;;;;;;;30.42;13.98;;;14.90;99.90;;;;;;4961421;28;20047;-45
2022/07/30 02:58:43;;;;;;;21.33;14.95;;;14.90;99.90;;;;;;4963003;28;20046;-43
2022/07/30 03:01:12;;;;;;;14.05;12.75;;;14.90;99.90;;;;;;4992921;28;20334;-44
2022/07/30 03:03:39;;;;;;;14.70;13.15;;;14.90;99.90;;;;;;4962177;28;20062;-45
2022/07/30 03:06:08;;;;;;;18.42;12.57;;;14.80;99.90;;;;;;4962703;28;20540;-44
2022/07/30 03:08:34;;;;;;;17.23;14.07;;;14.80;99.90;;;;;;4963371;28;20073;-46
2022/07/30 03:11:02;;;;;;;19.08;13.50;;;14.80;99.90;;;;;;4959234;28;20042;-44
2022/07/30 03:13:28;;;;;;;16.42;13.88;;;14.80;99.90;;;;;;4962504;28;20509;-43
2022/07/30 03:15:57;;;;;;;15.57;13.23;;;14.70;99.90;;;;;;4962581;28;20093;-43
2022/07/30 03:18:26;;;;;;;17.67;13.18;;;14.70;99.90;;;;;;4961241;28;20054;-45
2022/07/30 03:20:55;;;;;;;20.85;12.63;;;14.60;99.90;;;;;;4961410;28;20109;-46
2022/07/30 03:23:22;;;;;;;13.75;12.43;;;14.60;99.90;;;;;;4962539;28;20054;-44
2022/07/30 03:25:55;;;;;;;15.20;12.20;;;14.50;99.90;;;;;;4961262;28;20151;-44
2022/07/30 03:28:23;;;;;;;16.25;11.90;;;14.50;99.90;;;;;;4961948;28;20050;-46
2022/07/30 03:30:50;;;;;;;29.98;13.13;;;14.50;99.90;;;;;;4963709;28;20086;-46
2022/07/30 03:33:16;;;;;;;14.18;12.27;;;14.50;99.90;;;;;;4965284;28;20062;-47
2022/07/30 03:35:43;;;;;;;12.93;11.70;;;14.60;99.90;;;;;;4961178;28;20936;-49
2022/07/30 03:38:15;;;;;;;14.30;12.85;;;14.50;99.90;;;;;;4961852;28;20090;-44
2022/07/30 03:40:42;;;;;;;15.43;11.70;;;14.60;99.90;;;;;;4960238;28;20039;-43
2022/07/30 03:43:09;;;;;;;14.02;12.20;;;14.60;99.90;;;;;;4960461;28;20063;-43
2022/07/30 03:45:43;;;;;;;17.52;12.52;;;14.50;99.90;;;;;;4962910;28;20043;-45
2022/07/30 03:48:11;;;;;;;14.05;12.77;;;14.50;99.90;;;;;;4962722;28;20050;-43
2022/07/30 03:50:38;;;;;;;14.15;12.52;;;14.60;99.90;;;;;;4945686;28;20524;-44
2022/07/30 03:53:05;;;;;;;17.25;12.60;;;14.60;99.90;;;;;;4961544;28;20421;-45
2022/07/30 03:55:32;;;;;;;14.38;13.07;;;14.60;99.90;;;;;;4959649;28;20054;-44
2022/07/30 03:58:00;;;;;;;15.48;13.52;;;14.70;99.90;;;;;;4960752;28;20057;-44
2022/07/30 04:00:26;;;;;;;15.20;11.90;;;14.70;99.90;;;;;;4960512;28;20071;-43
2022/07/30 04:02:52;;;;;;;14.50;12.18;;;14.70;99.90;;;;;;4959396;28;20182;-43
2022/07/30 04:05:18;;;;;;;14.88;12.32;;;14.70;99.90;;;;;;4960311;28;20457;-44
2022/07/30 04:07:44;;;;;;;16.50;12.52;;;14.80;99.90;;;;;;4961658;28;20138;-44
2022/07/30 04:10:10;;;;;;;17.80;13.55;;;14.80;99.90;;;;;;4962491;28;20096;-44
2022/07/30 04:12:36;;;;;;;13.82;11.73;;;14.80;99.90;;;;;;4960813;28;20562;-45
2022/07/30 04:15:08;;;;;;;14.00;11.05;;;14.80;99.90;;;;;;4961479;28;20046;-44
2022/07/30 04:17:50;;;;;;;13.32;10.48;;;14.90;99.90;;;;;;4962424;28;20584;-46
2022/07/30 04:20:22;;;;;;;13.77;11.18;;;15.00;99.90;;;;;;4981444;28;20413;-44
2022/07/30 04:22:48;;;;;;;19.08;10.95;;;15.00;99.90;;;;;;4981371;28;20438;-45
2022/07/30 04:25:15;;;;;;;16.52;11.80;;;15.10;99.90;;;;;;4977226;28;20046;-44
2022/07/30 04:27:41;;;;;;;14.05;10.05;;;15.20;99.90;;;;;;4981161;28;20054;-43
2022/07/30 04:30:08;;;;;;;12.90;10.68;;;15.20;99.90;;;;;;4976425;28;20561;-44
2022/07/30 04:32:34;;;;;;;13.93;10.48;;;15.20;99.90;;;;;;4980726;28;20474;-42
2022/07/30 04:35:02;;;;;;;14.10;10.75;;;15.30;99.90;;;;;;4975175;28;20046;-44
2022/07/30 04:37:30;;;;;;;10.98;9.98;;;15.40;99.90;;;;;;4964166;28;20054;-45
2022/07/30 04:39:56;;;;;;;9.75;8.73;;;15.40;99.90;;;;;;4964024;28;20057;-43
2022/07/30 04:42:24;;;;;;;11.00;9.40;;;15.60;99.90;;;;;;4983129;28;20107;-44
2022/07/30 04:44:51;;;;;;;10.95;9.60;;;15.80;99.90;;;;;;4980956;28;20054;-46
2022/07/30 04:47:17;;;;;;;11.40;9.43;;;16.20;99.90;;;;;;4975629;28;20322;-48
2022/07/30 04:49:45;;;;;;;12.43;10.00;;;16.60;99.90;;;;;;4963873;28;20050;-50
2022/07/30 04:52:12;;;;;;;11.95;9.95;;;16.80;99.90;;;;;;4976052;28;20061;-45
2022/07/30 04:55:05;;;;;;;12.88;10.07;;;16.70;99.90;;;;;;4959292;28;20061;-46
2022/07/30 04:57:32;;;;;;;;;;;16.80;99.90;;;;;;4967345;28;20061;-43
2022/07/30 04:59:58;;;;;;;13.27;10.75;;;16.70;99.90;;;;;;4974767;28;19936;-44
2022/07/30 05:02:29;;;;;;;11.55;10.32;;;16.70;99.90;;;;;;4984517;28;20145;-44
2022/07/30 05:04:57;;;;;;;11.68;10.48;;;16.90;99.90;;;;;;4983061;28;20400;-46
2022/07/30 05:07:24;;;;;;;14.32;11.05;;;17.20;99.90;;;;;;4957518;28;20564;-44
2022/07/30 05:09:50;;;;;;;13.85;10.18;;;17.40;99.90;;;;;;4965008;28;20073;-45
2022/07/30 05:12:17;;;;;;;17.55;9.90;;;17.90;99.90;;;;;;4971248;28;20457;-42
2022/07/30 05:14:42;;;;;;;9.82;8.70;;;18.70;99.90;;;;;;4958020;28;20082;-45
2022/07/30 05:17:08;;;;;;;14.90;8.88;;;19.50;99.90;;;;;;4977594;28;20174;-45
2022/07/30 05:19:34;;;;;;;15.05;8.25;;;20.20;99.90;;;;;;4962877;28;20172;-46
2022/07/30 05:22:00;;;;;;;10.60;7.47;;;20.90;99.90;;;;;;4981235;28;20061;-44
2022/07/30 05:24:25;;;;;;;9.98;7.53;;;21.60;99.90;;;;;;4984107;28;20057;-45
2022/07/30 05:26:51;;;;;;;11.48;7.72;;;22.20;99.90;;;;;;4984008;28;20417;-44
2022/07/30 05:29:17;;;;;;;11.00;7.53;;;22.90;99.90;;;;;;4959774;28;20403;-44
2022/07/30 05:31:43;;;;;;;11.70;7.32;;;23.30;99.90;;;;;;4970188;28;20050;-44
2022/07/30 05:34:08;;;;;;;9.95;6.50;;;23.90;99.90;;;;;;4983644;28;20050;-44
2022/07/30 05:36:34;;;;;;;8.13;6.22;;;24.50;99.90;;;;;;4984428;28;20559;-45
2022/07/30 05:39:00;;;;;;;8.27;6.70;;;24.90;99.90;;;;;;4974779;28;20046;-46
2022/07/30 05:41:29;;;;;;;14.90;7.15;;;25.50;99.90;;;;;;4981672;28;20105;-43
2022/07/30 05:43:55;;;;;;;11.32;6.32;;;26.00;99.90;;;;;;4985030;28;20177;-44
2022/07/30 05:46:21;;;;;;;9.68;5.65;;;26.40;99.90;;;;;;4983474;28;20501;-44
2022/07/30 05:48:47;;;;;;;6.70;5.22;;;26.90;99.90;;;;;;4982726;28;20405;-43
2022/07/30 05:51:13;;;;;;;7.35;5.85;;;27.40;99.90;;;;;;4977895;28;20090;-48
2022/07/30 05:53:39;;;;;;;11.25;5.43;;;27.60;99.90;;;;;;4966185;28;20062;-44
2022/07/30 05:56:05;;;;;;;9.50;5.82;;;27.90;99.90;;;;;;4984086;28;20100;-45
2022/07/30 05:58:34;;;;;;;10.50;5.40;;;28.10;99.90;;;;;;4955400;28;20532;-44
2022/07/30 06:00:59;;;;;;;7.63;5.38;;;28.40;99.50;;;;;;4974493;28;20108;-43
2022/07/30 06:03:25;;;;;;;8.18;5.47;;;28.60;99.00;;;;;;4984921;28;20046;-49
2022/07/30 06:05:51;;;;;;;8.88;5.75;;;28.90;98.80;;;;;;4964129;28;20472;-49
2022/07/30 06:08:18;;;;;;;8.27;5.22;;;29.10;98.20;;;;;;4971239;28;20054;-45
2022/07/30 06:10:43;;;;;;;9.52;5.30;;;29.40;96.90;;;;;;4966822;28;20101;-45
2022/07/30 06:13:09;;;;;;;9.10;4.88;;;29.50;97.30;;;;;;4982545;28;20050;-45
2022/07/30 06:15:35;;;;;;;10.90;5.40;;;30.20;96.90;;;;;;4982741;28;20062;-44
2022/07/30 06:18:00;;;;;;;8.65;4.80;;;30.40;96.40;;;;;;4982686;28;20540;-44
2022/07/30 06:20:26;;;;;;;8.25;5.40;;;30.70;96.20;;;;;;4981383;28;20042;-44
2022/07/30 06:22:52;;;;;;;8.27;4.85;;;31.00;95.80;;;;;;4945879;28;20065;-47
2022/07/30 06:25:18;;;;;;;7.75;4.68;;;31.20;95.20;;;;;;4973611;28;20320;-46
2022/07/30 06:27:43;;;;;;;6.47;4.38;;;31.60;94.80;;;;;;4963575;28;20082;-45
2022/07/30 06:30:10;;;;;;;10.68;5.00;;;32.00;94.20;;;;;;4948970;28;20523;-45
2022/07/30 06:32:36;;;;;;;10.68;5.38;;;32.20;93.60;;;;;;4979492;28;20050;-44
2022/07/30 06:35:03;;;;;;;9.60;5.25;;;32.30;92.70;;;;;;4950496;28;20054;-45
2022/07/30 06:37:29;;;;;;;10.48;5.22;;;32.70;92.60;;;;;;4974937;28;20150;-48
2022/07/30 06:39:55;;;;;;;7.15;5.10;;;32.70;91.80;;;;;;4982578;28;20046;-45
2022/07/30 06:42:20;;;;;;;8.18;4.97;;;32.60;92.30;;;;;;4958255;28;20354;-47
2022/07/30 06:44:46;;;;;;;8.32;5.05;;;32.70;91.90;;;;;;4978594;28;20042;-48
2022/07/30 06:47:12;;;;;;;10.52;5.07;;;32.90;91.70;;;;;;4945195;28;20054;-46
2022/07/30 06:49:38;;;;;;;7.30;4.82;;;32.90;91.20;;;;;;4962143;28;20047;-44
2022/07/30 06:52:04;;;;;;;8.82;5.53;;;33.00;90.50;;;;;;4973561;28;20469;-45
2022/07/30 06:54:30;;;;;;;9.98;5.15;;;32.00;91.00;;;;;;4959603;28;20462;-44
2022/07/30 06:56:56;;;;;;;11.23;5.07;;;31.60;91.20;;;;;;4964865;28;20076;-47
2022/07/30 06:59:22;;;;;;;9.30;5.07;;;31.30;91.20;;;;;;4951444;28;20212;-45
2022/07/30 07:01:48;;;;;;;13.57;5.60;;;30.90;91.20;;;;;;4981436;28;20049;-46
2022/07/30 07:04:14;;;;;;;9.23;5.30;;;30.70;91.80;;;;;;4956573;28;20101;-45
2022/07/30 07:06:40;;;;;;;9.63;5.20;;;30.60;91.70;;;;;;4973962;28;20458;-47
2022/07/30 07:09:05;;;;;;;7.32;4.75;;;30.00;91.40;;;;;;4959580;28;20109;-50
2022/07/30 07:11:31;;;;;;;8.98;5.20;;;29.10;92.10;;;;;;4981734;28;20068;-45
2022/07/30 07:13:57;;;;;;;9.38;4.93;;;28.10;93.00;;;;;;4974393;28;20506;-45
2022/07/30 07:16:24;;;;;;;9.43;4.65;;;27.70;93.40;;;;;;4974925;28;20058;-45
2022/07/30 07:18:54;;;;;;;7.63;4.97;;;26.60;94.10;;;;;;4959009;28;20066;-49
2022/07/30 07:21:20;;;;;;;7.75;5.53;;;26.20;95.00;;;;;;4966015;28;20421;-48
2022/07/30 07:23:49;;;;;;;9.93;4.50;;;25.80;95.30;;;;;;4970280;28;20061;-48
2022/07/30 07:26:15;;;;;;;7.65;4.10;;;25.20;95.20;;;;;;4948124;28;20043;-48
2022/07/30 07:28:42;;;;;;;11.90;5.07;;;24.80;95.80;;;;;;4965996;28;20057;-45
2022/07/30 07:31:09;;;;;;;9.85;4.68;;;24.80;96.60;;;;;;4963827;28;20045;-47
2022/07/30 07:33:36;;;;;;;9.73;4.85;;;24.80;97.10;;;;;;4966533;28;20077;-45
2022/07/30 07:36:02;;;;;;;10.40;4.88;;;25.00;97.40;;;;;;4963601;28;20053;-44
2022/07/30 07:38:29;;;;;;;9.85;5.32;;;25.00;96.90;;;;;;4968320;28;20046;-44
2022/07/30 07:40:54;;;;;;;10.75;4.85;;;24.70;96.90;;;;;;4962779;28;20069;-44
2022/07/30 07:43:20;;;;;;;10.20;4.82;;;24.90;97.20;;;;;;4966425;28;20588;-45
2022/07/30 07:45:46;;;;;;;10.85;5.95;;;24.60;96.90;;;;;;4963200;28;20042;-44
2022/07/30 07:48:16;;;;;;;8.50;4.65;;;24.40;96.90;;;;;;4965522;28;20077;-48
2022/07/30 07:50:41;;;;;;;9.30;5.03;;;24.60;97.40;;;;;;4963313;28;20469;-44
2022/07/30 07:53:07;;;;;;;7.68;4.57;;;24.70;97.20;;;;;;4948995;28;20097;-45
2022/07/30 07:55:33;;;;;;;11.25;4.60;;;25.20;97.00;;;;;;4955979;28;20054;-45
2022/07/30 07:57:59;;;;;;;9.63;4.18;;;25.30;96.60;;;;;;4967525;28;20133;-47
2022/07/30 08:00:25;;;;;;;8.48;4.43;;;25.20;96.40;;;;;;4967315;28;20050;-44
2022/07/30 08:02:51;;;;;;;9.75;4.57;;;24.90;96.00;;;;;;4980959;28;20559;-46
2022/07/30 08:05:16;;;;;;;8.18;4.53;;;24.50;96.30;;;;;;4981412;28;20452;-46
2022/07/30 08:07:43;;;;;;;6.85;4.15;;;24.40;97.20;;;;;;4977728;28;20043;-44
2022/07/30 08:10:12;;;;;;;8.13;4.30;;;24.70;97.20;;;;;;4975581;28;20568;-45
2022/07/30 08:12:38;;;;;;;8.07;4.85;;;25.10;97.10;;;;;;4980950;28;20061;-45
2022/07/30 08:15:05;;;;;;;11.90;4.68;;;25.20;96.80;;;;;;4962340;28;20058;-45
2022/07/30 08:17:31;;;;;;;12.07;5.13;;;25.10;96.30;;;;;;4979720;28;20083;-45
2022/07/30 08:20:00;;;;;;;8.63;3.92;;;25.10;96.10;;;;;;4971292;28;20427;-45
2022/07/30 08:22:26;;;;;;;8.40;4.80;;;24.90;96.20;;;;;;4980944;28;20444;-44
2022/07/30 08:24:53;;;;;;;7.53;4.13;;;24.50;96.50;;;;;;4970704;28;20053;-45
2022/07/30 08:27:20;;;;;;;11.82;5.30;;;24.30;97.00;;;;;;4979064;28;20054;-45
2022/07/30 08:29:46;;;;;;;12.90;4.63;;;24.40;97.20;;;;;;4973719;28;20567;-44
2022/07/30 08:32:12;;;;;;;7.88;4.50;;;24.60;96.90;;;;;;4988307;28;20043;-45
2022/07/30 08:34:38;;;;;;;9.85;4.35;;;24.80;96.70;;;;;;4970501;28;20054;-49
2022/07/30 08:37:04;;;;;;;7.78;4.60;;;24.90;96.50;;;;;;4989046;28;20050;-47
2022/07/30 08:39:30;;;;;;;8.02;3.80;;;25.20;96.40;;;;;;4966205;28;20066;-48
2022/07/30 08:42:03;;;;;;;9.02;4.60;;;25.30;96.00;;;;;;4985649;28;20069;-46
2022/07/30 08:44:31;;;;;;;8.98;3.80;;;25.30;95.90;;;;;;4988740;28;20042;-46
2022/07/30 08:46:58;;;;;;;7.20;3.70;;;25.20;95.20;;;;;;4957847;28;20058;-47
2022/07/30 08:49:25;;;;;;;8.45;4.07;;;25.30;95.30;;;;;;4970365;28;20089;-48
2022/07/30 08:51:55;;;;;;;7.13;3.88;;;25.20;95.10;;;;;;4977964;28;20077;-48
2022/07/30 08:54:21;;;;;;;4.78;3.47;;;25.30;94.90;;;;;;4985551;28;20045;-52
2022/07/30 08:56:51;;;;;;;7.95;4.22;;;25.20;94.50;;;;;;4968949;28;20327;-44
2022/07/30 08:59:17;;;;;;;9.13;4.32;;;25.20;94.60;;;;;;4971893;28;20054;-44
2022/07/30 09:01:43;;;;;;;9.85;3.78;;;25.20;95.00;;;;;;4982269;28;20473;-46
2022/07/30 09:04:08;;;;;;;11.73;4.20;;;25.00;95.10;;;;;;4970790;28;20564;-46
2022/07/30 09:06:35;;;;;;;11.02;3.95;;;25.10;95.20;;;;;;4984089;28;20448;-45
2022/07/30 09:09:01;;;;;;;8.88;4.32;;;25.20;95.00;;;;;;4977621;28;20097;-45
2022/07/30 09:11:27;;;;;;;7.20;3.40;;;25.20;94.60;;;;;;4946519;28;20470;-45
2022/07/30 09:13:52;;;;;;;9.10;4.10;;;25.20;94.70;;;;;;4958477;28;20116;-44
2022/07/30 09:16:25;;;;;;;7.82;4.03;;;25.10;94.50;;;;;;4966240;28;20054;-47
2022/07/30 09:18:53;;;;;;;8.82;3.53;;;25.20;95.10;;;;;;4983409;28;20552;-45
2022/07/30 09:21:22;;;;;;;6.70;3.88;;;25.00;95.60;;;;;;4946520;28;20062;-47
2022/07/30 09:23:58;;;;;;;5.75;3.53;;;24.80;95.20;;;;;;4964420;28;20050;-45
2022/07/30 09:26:24;;;;;;;7.63;3.60;;;25.00;95.30;;;;;;4976720;28;20050;-45
2022/07/30 09:28:50;;;;;;;7.32;3.38;;;25.10;94.60;;;;;;4983491;28;20497;-48
2022/07/30 09:31:17;;;;;;;6.80;3.17;;;25.10;95.20;;;;;;4968852;28;20046;-45
2022/07/30 09:33:44;;;;;;;7.88;3.40;;;25.20;94.70;;;;;;4983716;28;20092;-45
2022/07/30 09:36:13;;;;;;;6.35;3.20;;;25.20;94.30;;;;;;4966380;28;20116;-46
2022/07/30 09:38:50;;;;;;;5.18;2.88;;;25.10;94.30;;;;;;4984171;28;20153;-45
2022/07/30 09:41:24;;;;;;;8.55;3.20;;;24.80;94.30;;;;;;4979859;28;20046;-45
2022/07/30 09:43:51;;;;;;;6.55;3.00;;;24.70;95.30;;;;;;4963873;28;20154;-44
2022/07/30 09:46:45;;;;;;;6.00;2.88;;;24.80;94.50;;;;;;4950163;28;20046;-49
2022/07/30 09:49:16;;;;;;;7.43;3.63;;;25.00;96.10;;;;;;4979884;28;20109;-44
2022/07/30 09:51:42;;;;;;;8.73;3.20;;;25.10;94.70;;;;;;4981179;28;20393;-45
2022/07/30 09:54:07;;;;;;;13.15;3.63;;;25.00;94.80;;;;;;4977726;28;20111;-46
2022/07/30 09:56:33;;;;;;;9.82;3.78;;;25.20;94.60;;;;;;4983581;28;20477;-47
2022/07/30 09:58:59;;;;;;;6.20;3.10;;;25.40;95.20;;;;;;4970173;28;20055;-47
2022/07/30 10:01:27;;;;;;;9.43;3.50;;;25.50;94.60;;;;;;4983349;28;20111;-44
2022/07/30 10:03:53;;;;;;;10.05;3.28;;;25.50;94.40;;;;;;4981157;28;20046;-46
2022/07/30 10:06:31;;;;;;;13.02;4.03;;;25.50;94.20;;;;;;4982639;28;20112;-47
2022/07/30 10:08:56;;;;;;;6.65;3.30;;;25.50;94.40;;;;;;4978103;28;20050;-47
2022/07/30 10:11:23;;;;;;;8.85;4.32;;;25.50;94.40;;;;;;4975364;28;20120;-45
2022/07/30 10:14:13;;;;;;;5.65;2.97;;;25.30;94.20;;;;;;4989726;28;20122;-45
2022/07/30 10:16:52;;;;;;;16.13;3.38;;;25.50;93.90;;;;;;4970338;28;20150;-47
2022/07/30 10:19:27;;;;;;;10.57;3.22;;;25.60;93.90;;;;;;4969332;28;20732;-47
2022/07/30 10:21:57;;;;;;;7.00;3.28;;;25.70;94.20;;;;;;4972616;28;20110;-49
2022/07/30 10:24:40;;;;;;;6.95;3.35;;;25.60;94.50;;;;;;4960498;28;20058;-50
2022/07/30 10:27:08;;;;;;;7.47;3.50;;;25.40;94.10;;;;;;4951483;28;20058;-45
2022/07/30 10:29:37;;;;;;;7.32;3.13;;;25.60;94.00;;;;;;4965789;28;20350;-44
2022/07/30 10:32:03;;;;;;;7.75;3.78;;;25.90;94.40;;;;;;4960983;28;20062;-45
2022/07/30 10:34:31;;;;;;;9.60;4.60;;;25.80;94.70;;;;;;4964970;28;20051;-47
2022/07/30 10:37:00;;;;;;;8.10;3.25;;;25.60;94.50;;;;;;4964016;28;20516;-47
2022/07/30 10:39:31;;;;;;;8.02;3.85;;;25.50;94.20;;;;;;4965965;28;20054;-45
2022/07/30 10:42:08;;;;;;;6.80;3.45;;;25.40;93.90;;;;;;4965450;28;20047;-45
2022/07/30 10:44:59;;;;;;;8.32;3.70;;;25.40;94.00;;;;;;4965290;28;20050;-47
2022/07/30 10:47:27;;;;;;;11.27;3.55;;;25.60;94.60;;;;;;4992231;28;20058;-48
2022/07/30 10:50:15;;;;;;;8.07;4.00;;;25.80;94.50;;;;;;4965197;28;20058;-48
2022/07/30 10:52:50;;;;;;;6.22;4.25;;;25.70;93.80;;;;;;4965204;28;20102;-46
2022/07/30 10:55:34;;;;;;;8.07;4.10;;;25.60;93.70;;;;;;4967015;28;20139;-46
2022/07/30 10:58:08;;;;;;;5.38;3.67;;;25.60;93.80;;;;;;4963465;28;20047;-47
2022/07/30 11:00:52;;;;;;;8.05;3.88;;;25.50;93.80;;;;;;4966966;28;20070;-46
2022/07/30 11:03:22;;;;;;;6.60;3.70;;;25.70;93.70;;;;;;4965564;28;20065;-48
2022/07/30 11:06:14;;;;;;;5.13;3.47;;;25.70;93.70;;;;;;4964581;28;20490;-48
2022/07/30 11:08:44;;;;;;;5.93;3.28;;;25.70;93.30;;;;;;4960322;28;20088;-47
2022/07/30 11:11:22;;;;;;;7.45;3.38;;;25.70;94.10;;;;;;4965748;28;20101;-48
2022/07/30 11:13:53;;;;;;;6.75;3.40;;;25.90;93.80;;;;;;4966023;28;20054;-49
2022/07/30 11:16:47;;;;;;;7.18;3.53;;;26.10;94.50;;;;;;4966012;28;20062;-46
2022/07/30 11:19:16;;;;;;;9.68;3.85;;;26.20;93.90;;;;;;4996853;28;20139;-48
2022/07/30 11:21:49;;;;;;;8.73;3.50;;;26.10;93.80;;;;;;4965638;28;20556;-47
2022/07/30 11:24:47;;;;;;;7.38;3.30;;;26.10;94.10;;;;;;4965778;28;20412;-46
2022/07/30 11:27:49;;;;;;;6.22;3.10;;;26.30;93.70;;;;;;4964607;28;20914;-46
2022/07/30 11:30:15;;;;;;;7.43;3.57;;;26.50;93.90;;;;;;4964263;28;20128;-47
2022/07/30 11:32:43;;;;;;;6.15;3.58;;;26.60;93.20;;;;;;4965688;28;20133;-49
2022/07/30 11:35:20;;;;;;;31.65;4.68;;;26.40;93.40;;;;;;4965385;28;20046;-47
2022/07/30 11:38:10;;;;;;;5.20;3.40;;;26.50;93.60;;;;;;4964447;28;20125;-50
2022/07/30 11:40:47;;;;;;;7.38;3.45;;;26.30;93.30;;;;;;4964493;28;20083;-51
2022/07/30 11:43:28;;;;;;;8.40;3.42;;;26.20;92.80;;;;;;4963914;28;20062;-49
2022/07/30 11:46:16;;;;;;;7.53;3.15;;;26.10;92.60;;;;;;4965058;28;20047;-50
2022/07/30 11:48:58;;;;;;;4.72;2.35;;;26.20;91.90;;;;;;4966118;28;20050;-48
2022/07/30 11:51:25;;;;;;;7.35;2.90;;;26.20;91.30;;;;;;4965981;28;20086;-52
2022/07/30 11:54:09;;;;;;;8.10;2.50;;;26.10;92.40;;;;;;4966118;28;20050;-49
2022/07/30 11:56:35;;;;;;;7.57;2.70;;;26.20;93.70;;;;;;4966259;28;20061;-49
2022/07/30 11:59:06;;;;;;;6.25;2.83;;;26.20;93.00;;;;;;4965420;28;20048;-47
2022/07/30 12:01:34;;;;;;;6.80;2.40;;;26.10;92.40;;;;;;4996335;28;20062;-46
2022/07/30 12:04:05;;;;;;;8.00;3.13;;;26.00;92.90;;;;;;4964463;28;20054;-47
2022/07/30 12:06:32;;;;;;;4.88;2.53;;;25.90;91.70;;;;;;4966661;28;20391;-47
2022/07/30 12:08:59;;;;;;;6.63;2.67;;;25.80;91.60;;;;;;4983175;28;20050;-49
2022/07/30 12:11:34;;;;;;;5.55;2.28;;;25.70;92.00;;;;;;4966620;28;20042;-48
2022/07/30 12:14:01;;;;;;;4.90;1.88;;;25.50;91.60;;;;;;4998454;28;20062;-49
2022/07/30 12:16:29;;;;;;;5.10;2.63;;;25.50;92.60;;;;;;4964378;28;20457;-48
2022/07/30 12:19:11;;;;;;;4.78;2.05;;;25.50;91.90;;;;;;4970799;28;20058;-47
2022/07/30 12:21:37;;;;;;;3.13;2.17;;;25.60;93.00;;;;;;4970123;28;20058;-50
2022/07/30 12:24:09;;;;;;;6.70;2.03;;;25.60;92.00;;;;;;4969298;28;20778;-46
2022/07/30 12:26:35;;;;;;;5.33;2.03;;;25.50;91.90;;;;;;4970501;28;20051;-47
2022/07/30 12:29:12;;;;;;;4.40;1.98;;;25.30;92.10;;;;;;4968816;28;20058;-47
2022/07/30 12:31:41;;;;;;;5.63;2.38;;;25.30;92.80;;;;;;4968140;28;20054;-48
2022/07/30 12:34:23;;;;;;;3.78;2.17;;;25.30;92.60;;;;;;4960036;28;20054;-47
2022/07/30 12:36:50;;;;;;;5.20;1.90;;;25.10;92.20;;;;;;4953197;28;20067;-47
2022/07/30 12:39:24;;;;;;;3.20;1.80;;;25.00;92.40;;;;;;4966446;28;20047;-51
2022/07/30 12:41:54;;;;;;;7.35;2.08;;;25.00;92.40;;;;;;4966364;28;20058;-51
2022/07/30 12:44:49;;;;;;;4.53;1.70;;;24.90;92.50;;;;;;4968011;28;20066;-47
2022/07/30 12:47:29;;;;;;;8.25;2.08;;;24.80;92.40;;;;;;4999919;28;20870;-46